createdAt,value
2019-05-01T00:02:05.690Z,11.67
2019-05-01T00:04:39.426Z,12.10
2019-05-01T00:07:13.620Z,12.10
2019-05-01T00:09:47.373Z,12.41
2019-05-01T00:12:21.108Z,12.35
2019-05-01T00:14:54.819Z,11.67
2019-05-01T00:17:28.548Z,11.67
2019-05-01T00:20:03.306Z,11.67
2019-05-01T00:22:37.037Z,11.67
2019-05-01T00:25:10.898Z,11.74
2019-05-01T00:27:44.838Z,11.74
2019-05-01T00:30:29.259Z,12.13
2019-05-01T00:32:53.963Z,12.16
2019-05-01T00:35:27.670Z,12.16
2019-05-01T00:38:01.395Z,11.86
2019-05-01T00:40:35.090Z,12.24
2019-05-01T00:43:08.802Z,12.60
2019-05-01T00:45:42.520Z,12.26
2019-05-01T00:48:16.278Z,11.77
2019-05-01T00:50:50.013Z,11.77
2019-05-01T00:53:23.716Z,12.24
2019-05-01T00:55:57.425Z,12.32
2019-05-01T00:58:31.146Z,12.18
2019-05-01T01:01:04.937Z,11.30
2019-05-01T01:03:38.645Z,11.30
2019-05-01T01:06:12.363Z,11.18
2019-05-01T01:08:46.077Z,11.28
2019-05-01T01:11:19.794Z,11.14
2019-05-01T01:13:53.513Z,11.09
2019-05-01T01:16:27.499Z,11.09
2019-05-01T01:19:01.203Z,11.22
2019-05-01T01:21:34.932Z,11.23
2019-05-01T01:24:08.654Z,11.23
2019-05-01T01:26:42.362Z,11.23
2019-05-01T01:29:16.060Z,11.23
2019-05-01T01:32:09.182Z,10.75
2019-05-01T01:34:42.871Z,10.75
2019-05-01T01:37:16.591Z,10.63
2019-05-01T01:39:50.285Z,10.73
2019-05-01T01:42:24.030Z,10.89
2019-05-01T01:44:57.738Z,11.28
2019-05-01T01:47:31.441Z,11.12
2019-05-01T01:50:06.419Z,11.12
2019-05-01T01:52:40.147Z,11.33
2019-05-01T01:55:13.981Z,11.33
2019-05-01T01:57:47.710Z,11.39
2019-05-01T02:00:21.422Z,11.79
2019-05-01T02:02:55.184Z,11.46
2019-05-01T02:05:28.878Z,11.61
2019-05-01T02:08:02.589Z,11.71
2019-05-01T02:10:43.012Z,11.34
2019-05-01T02:13:11.769Z,11.34
2019-05-01T02:15:45.449Z,11.27
2019-05-01T02:18:19.164Z,11.33
2019-05-01T02:20:52.863Z,11.33
2019-05-01T02:23:26.574Z,10.98
2019-05-01T02:26:00.351Z,10.61
2019-05-01T02:28:34.047Z,10.56
2019-05-01T02:31:07.753Z,11.02
2019-05-01T02:33:41.458Z,11.39
2019-05-01T02:36:15.507Z,11.32
2019-05-01T02:38:49.228Z,11.25
2019-05-01T02:41:24.573Z,11.34
2019-05-01T02:44:04.616Z,11.24
2019-05-01T02:46:39.379Z,11.24
2019-05-01T02:49:25.409Z,11.22
2019-05-01T02:51:59.147Z,11.38
2019-05-01T02:54:33.417Z,11.38
2019-05-01T02:57:07.508Z,11.83
2019-05-01T02:59:43.122Z,11.83
2019-05-01T03:02:17.011Z,11.25
2019-05-01T03:04:51.342Z,10.94
2019-05-01T03:07:25.070Z,10.94
2019-05-01T03:09:59.040Z,10.94
2019-05-01T03:12:32.817Z,10.96
2019-05-01T03:15:06.602Z,10.81
2019-05-01T03:17:40.315Z,10.81
2019-05-01T03:20:14.031Z,10.86
2019-05-01T03:22:47.734Z,11.18
2019-05-01T03:25:21.436Z,11.18
2019-05-01T03:27:55.175Z,11.18
2019-05-01T03:30:28.897Z,11.02
2019-05-01T03:33:03.642Z,11.32
2019-05-01T03:35:37.343Z,11.32
2019-05-01T03:38:11.125Z,11.48
2019-05-01T03:40:44.854Z,11.48
2019-05-01T03:43:18.567Z,11.33
2019-05-01T03:45:52.365Z,11.64
2019-05-01T03:48:26.173Z,11.64
2019-05-01T03:50:59.898Z,11.15
2019-05-01T03:53:33.994Z,11.15
2019-05-01T03:56:07.683Z,11.27
2019-05-01T03:58:41.387Z,11.55
2019-05-01T04:01:15.100Z,11.36
2019-05-01T04:03:49.151Z,11.50
2019-05-01T04:06:22.929Z,11.50
2019-05-01T04:08:56.645Z,11.81
2019-05-01T04:11:30.421Z,11.71
2019-05-01T04:14:04.665Z,11.62
2019-05-01T04:16:38.380Z,11.62
2019-05-01T04:19:12.147Z,10.93
2019-05-01T04:21:45.849Z,11.12
2019-05-01T04:24:19.559Z,11.12
2019-05-01T04:26:53.280Z,11.11
2019-05-01T04:29:27.000Z,11.10
2019-05-01T04:32:00.919Z,11.10
2019-05-01T04:34:34.639Z,11.23
2019-05-01T04:37:08.334Z,11.23
2019-05-01T04:39:42.052Z,11.51
2019-05-01T04:42:15.791Z,10.77
2019-05-01T04:44:49.500Z,10.56
2019-05-01T04:47:23.218Z,10.59
2019-05-01T04:49:56.917Z,10.59
2019-05-01T04:52:30.617Z,10.75
2019-05-01T04:55:05.265Z,10.71
2019-05-01T04:57:38.994Z,10.71
2019-05-01T05:00:12.696Z,10.95
2019-05-01T05:02:46.403Z,11.13
2019-05-01T05:05:20.103Z,11.21
2019-05-01T05:07:54.297Z,10.95
2019-05-01T05:10:28.008Z,11.07
2019-05-01T05:13:01.710Z,11.07
2019-05-01T05:15:35.415Z,11.50
2019-05-01T05:18:09.128Z,11.50
2019-05-01T05:20:42.835Z,11.59
2019-05-01T05:23:16.559Z,11.59
2019-05-01T05:25:50.338Z,11.53
2019-05-01T05:28:24.043Z,11.21
2019-05-01T05:30:57.759Z,11.04
2019-05-01T05:33:32.622Z,10.78
2019-05-01T05:36:06.482Z,11.20
2019-05-01T05:38:40.205Z,10.83
2019-05-01T05:41:13.936Z,11.21
2019-05-01T05:43:47.652Z,11.21
2019-05-01T05:46:21.372Z,11.11
2019-05-01T05:48:55.064Z,11.11
2019-05-01T05:51:28.870Z,10.47
2019-05-01T05:54:02.565Z,10.89
2019-05-01T05:56:36.276Z,11.35
2019-05-01T05:59:10.055Z,11.26
2019-05-01T06:01:44.918Z,11.15
2019-05-01T06:04:18.706Z,11.15
2019-05-01T06:06:53.352Z,10.91
2019-05-01T06:09:28.082Z,10.91
2019-05-01T06:12:04.899Z,11.06
2019-05-01T06:14:37.245Z,11.24
2019-05-01T06:17:10.954Z,11.33
2019-05-01T06:19:45.859Z,11.51
2019-05-01T06:22:20.069Z,11.29
2019-05-01T06:24:53.784Z,11.46
2019-05-01T06:27:27.494Z,11.46
2019-05-01T06:30:01.202Z,11.20
2019-05-01T06:32:36.261Z,11.20
2019-05-01T06:35:10.063Z,11.18
2019-05-01T06:38:00.710Z,11.18
2019-05-01T06:40:37.071Z,10.84
2019-05-01T06:43:27.271Z,10.84
2019-05-01T06:46:01.161Z,11.39
2019-05-01T06:48:34.897Z,11.39
2019-05-01T06:51:08.598Z,11.44
2019-05-01T06:53:42.308Z,11.70
2019-05-01T06:56:16.122Z,11.92
2019-05-01T06:58:51.048Z,12.05
2019-05-01T07:01:25.272Z,11.65
2019-05-01T07:04:06.150Z,11.65
2019-05-01T07:06:34.835Z,11.74
2019-05-01T07:09:11.948Z,11.52
2019-05-01T07:11:47.738Z,11.46
2019-05-01T07:14:19.491Z,11.92
2019-05-01T07:16:53.241Z,11.99
2019-05-01T07:19:26.988Z,11.75
2019-05-01T07:22:01.804Z,11.86
2019-05-01T07:24:36.135Z,11.96
2019-05-01T07:27:09.883Z,11.96
2019-05-01T07:29:45.032Z,11.89
2019-05-01T07:32:19.111Z,11.94
2019-05-01T07:34:56.962Z,11.94
2019-05-01T07:37:28.240Z,12.28
2019-05-01T07:40:02.001Z,12.22
2019-05-01T07:42:35.715Z,12.36
2019-05-01T07:45:09.785Z,12.38
2019-05-01T07:47:43.588Z,12.88
2019-05-01T07:50:17.297Z,12.42
2019-05-01T07:52:52.258Z,12.42
2019-05-01T07:55:26.424Z,12.34
2019-05-01T07:58:00.145Z,12.11
2019-05-01T08:00:47.987Z,11.84
2019-05-01T08:03:21.707Z,12.10
2019-05-01T08:05:55.406Z,12.10
2019-05-01T08:08:29.119Z,12.16
2019-05-01T08:11:05.354Z,12.18
2019-05-01T08:13:38.316Z,12.18
2019-05-01T08:16:12.011Z,12.40
2019-05-01T08:18:45.823Z,12.10
2019-05-01T08:21:21.254Z,12.10
2019-05-01T08:23:54.968Z,12.27
2019-05-01T08:26:28.706Z,12.69
2019-05-01T08:29:02.970Z,12.52
2019-05-01T08:31:37.859Z,12.57
2019-05-01T08:34:11.568Z,12.34
2019-05-01T08:36:47.176Z,12.34
2019-05-01T08:39:22.885Z,12.15
2019-05-01T08:41:56.602Z,12.28
2019-05-01T08:44:30.857Z,12.28
2019-05-01T08:47:04.708Z,12.73
2019-05-01T08:49:42.196Z,12.47
2019-05-01T08:52:14.149Z,12.78
2019-05-01T08:54:47.899Z,12.69
2019-05-01T08:57:21.639Z,12.56
2019-05-01T08:59:55.654Z,12.56
2019-05-01T09:02:30.868Z,12.63
2019-05-01T09:05:07.146Z,12.67
2019-05-01T09:07:40.928Z,12.99
2019-05-01T09:10:16.992Z,12.94
2019-05-01T09:12:52.072Z,13.26
2019-05-01T09:15:25.551Z,13.05
2019-05-01T09:17:59.265Z,12.81
2019-05-01T09:20:32.978Z,12.81
2019-05-01T09:23:09.498Z,12.95
2019-05-01T09:25:42.138Z,12.95
2019-05-01T09:28:15.978Z,13.13
2019-05-01T09:30:49.697Z,13.10
2019-05-01T09:33:26.207Z,13.32
2019-05-01T09:35:59.331Z,13.32
2019-05-01T09:38:33.064Z,13.55
2019-05-01T09:41:06.846Z,13.35
2019-05-01T09:43:40.626Z,13.35
2019-05-01T09:46:14.486Z,13.35
2019-05-01T09:48:48.343Z,13.39
2019-05-01T09:51:22.045Z,13.50
2019-05-01T09:53:55.751Z,13.67
2019-05-01T09:56:29.499Z,13.67
2019-05-01T09:59:03.217Z,13.70
2019-05-01T10:01:36.931Z,13.59
2019-05-01T10:04:10.649Z,13.59
2019-05-01T10:06:47.597Z,13.90
2019-05-01T10:09:19.879Z,13.95
2019-05-01T10:11:53.659Z,14.30
2019-05-01T10:14:31.528Z,14.30
2019-05-01T10:17:02.776Z,13.97
2019-05-01T10:19:36.500Z,14.47
2019-05-01T10:22:10.222Z,14.34
2019-05-01T10:24:43.944Z,14.18
2019-05-01T10:27:17.661Z,14.09
2019-05-01T10:29:51.402Z,13.92
2019-05-01T10:32:25.106Z,13.98
2019-05-01T10:34:58.902Z,13.98
2019-05-01T10:37:33.568Z,14.27
2019-05-01T10:40:08.327Z,14.25
2019-05-01T10:42:42.051Z,14.43
2019-05-01T10:45:15.762Z,14.43
2019-05-01T10:47:49.505Z,14.58
2019-05-01T10:50:23.226Z,14.58
2019-05-01T10:52:56.922Z,14.90
2019-05-01T10:55:30.700Z,14.81
2019-05-01T10:58:04.488Z,14.77
2019-05-01T11:00:38.205Z,14.61
2019-05-01T11:03:13.001Z,14.61
2019-05-01T11:05:55.637Z,15.13
2019-05-01T11:08:22.154Z,15.13
2019-05-01T11:10:55.953Z,15.61
2019-05-01T11:13:29.701Z,15.61
2019-05-01T11:16:03.482Z,16.02
2019-05-01T11:18:37.311Z,16.06
2019-05-01T11:21:11.028Z,16.03
2019-05-01T11:23:44.759Z,16.03
2019-05-01T11:26:18.597Z,16.58
2019-05-01T11:28:52.298Z,16.58
2019-05-01T11:31:26.116Z,16.29
2019-05-01T11:33:59.839Z,16.01
2019-05-01T11:36:33.574Z,16.03
2019-05-01T11:39:07.337Z,15.93
2019-05-01T11:41:41.068Z,16.04
2019-05-01T11:44:14.782Z,15.93
2019-05-01T11:46:48.512Z,15.84
2019-05-01T11:49:22.314Z,15.84
2019-05-01T11:51:56.102Z,15.91
2019-05-01T11:54:29.862Z,15.97
2019-05-01T11:57:03.672Z,16.25
2019-05-01T11:59:37.394Z,16.25
2019-05-01T12:02:11.244Z,16.31
2019-05-01T12:04:44.997Z,16.38
2019-05-01T12:07:18.703Z,16.29
2019-05-01T12:09:52.407Z,16.29
2019-05-01T12:12:26.124Z,16.35
2019-05-01T12:14:59.896Z,16.83
2019-05-01T12:17:33.630Z,16.83
2019-05-01T12:20:07.402Z,16.72
2019-05-01T12:22:41.446Z,16.64
2019-05-01T12:25:15.167Z,16.95
2019-05-01T12:27:48.894Z,17.06
2019-05-01T12:30:22.697Z,17.06
2019-05-01T12:32:56.398Z,16.81
2019-05-01T12:35:30.144Z,16.81
2019-05-01T12:38:03.974Z,17.26
2019-05-01T12:40:37.747Z,17.17
2019-05-01T12:43:12.377Z,17.17
2019-05-01T12:45:46.384Z,17.76
2019-05-01T12:48:20.130Z,17.48
2019-05-01T12:50:53.961Z,17.48
2019-05-01T12:53:27.693Z,17.31
2019-05-01T12:56:01.415Z,17.45
2019-05-01T12:58:35.126Z,17.32
2019-05-01T13:01:08.870Z,17.62
2019-05-01T13:03:42.557Z,17.46
2019-05-01T13:06:16.279Z,17.46
2019-05-01T13:08:49.985Z,17.93
2019-05-01T13:11:23.782Z,17.93
2019-05-01T13:13:57.593Z,18.36
2019-05-01T13:16:31.329Z,18.78
2019-05-01T13:19:05.117Z,18.78
2019-05-01T13:21:38.929Z,19.45
2019-05-01T13:24:13.815Z,19.45
2019-05-01T13:26:47.563Z,19.25
2019-05-01T13:29:21.266Z,19.28
2019-05-01T13:31:55.038Z,19.42
2019-05-01T13:34:28.749Z,19.73
2019-05-01T13:37:03.491Z,19.73
2019-05-01T13:39:37.378Z,19.76
2019-05-01T13:42:11.095Z,19.86
2019-05-01T13:44:44.811Z,19.80
2019-05-01T13:47:18.555Z,19.80
2019-05-01T13:49:52.278Z,19.26
2019-05-01T13:52:25.991Z,19.26
2019-05-01T13:54:59.741Z,19.26
2019-05-01T13:57:33.512Z,19.32
2019-05-01T14:00:07.391Z,19.32
2019-05-01T14:02:41.106Z,18.52
2019-05-01T14:05:14.811Z,18.52
2019-05-01T14:07:48.532Z,18.33
2019-05-01T14:10:22.336Z,18.54
2019-05-01T14:12:56.091Z,18.94
2019-05-01T14:15:29.937Z,18.97
2019-05-01T14:18:03.656Z,19.01
2019-05-01T14:20:38.209Z,18.23
2019-05-01T14:23:11.939Z,18.23
2019-05-01T14:25:45.732Z,18.37
2019-05-01T14:28:19.473Z,18.14
2019-05-01T14:30:53.222Z,18.14
2019-05-01T14:33:26.986Z,18.03
2019-05-01T14:36:00.754Z,18.29
2019-05-01T14:38:34.483Z,18.01
2019-05-01T14:41:08.206Z,17.72
2019-05-01T14:43:41.992Z,17.72
2019-05-01T14:46:15.694Z,18.61
2019-05-01T14:48:49.442Z,18.63
2019-05-01T14:51:23.194Z,18.63
2019-05-01T14:53:56.897Z,18.75
2019-05-01T14:56:30.648Z,18.66
2019-05-01T14:59:04.499Z,18.25
2019-05-01T15:01:38.204Z,17.71
2019-05-01T15:04:13.121Z,17.71
2019-05-01T15:06:46.823Z,18.09
2019-05-01T15:09:20.752Z,18.43
2019-05-01T15:11:54.470Z,18.43
2019-05-01T15:14:28.199Z,18.65
2019-05-01T15:17:01.925Z,18.75
2019-05-01T15:19:35.629Z,18.75
2019-05-01T15:22:09.318Z,19.33
2019-05-01T15:24:43.130Z,18.88
2019-05-01T15:27:17.155Z,19.38
2019-05-01T15:29:50.865Z,19.38
2019-05-01T15:32:24.601Z,20.07
2019-05-01T15:34:58.333Z,20.08
2019-05-01T15:37:32.071Z,20.55
2019-05-01T15:40:06.153Z,20.55
2019-05-01T15:42:39.873Z,20.38
2019-05-01T15:45:13.574Z,20.14
2019-05-01T15:47:47.325Z,19.28
2019-05-01T15:50:21.051Z,19.28
2019-05-01T15:52:54.751Z,19.74
2019-05-01T15:55:28.485Z,19.64
2019-05-01T15:58:02.291Z,19.64
2019-05-01T16:00:36.078Z,19.96
2019-05-01T16:03:09.799Z,19.96
2019-05-01T16:05:43.512Z,19.36
2019-05-01T16:08:17.269Z,18.52
2019-05-01T16:10:50.979Z,18.52
2019-05-01T16:13:24.782Z,18.31
2019-05-01T16:15:58.520Z,18.52
2019-05-01T16:18:32.240Z,18.44
2019-05-01T16:21:05.968Z,18.47
2019-05-01T16:23:39.653Z,17.97
2019-05-01T16:26:13.352Z,17.11
2019-05-01T16:28:47.086Z,17.07
2019-05-01T16:31:20.808Z,17.07
2019-05-01T16:33:54.526Z,17.33
2019-05-01T16:36:28.266Z,17.33
2019-05-01T16:39:02.027Z,17.56
2019-05-01T16:41:35.738Z,17.62
2019-05-01T16:44:09.644Z,17.71
2019-05-01T16:46:43.656Z,17.80
2019-05-01T16:49:17.372Z,17.93
2019-05-01T16:51:51.104Z,17.57
2019-05-01T16:54:24.812Z,17.57
2019-05-01T16:56:58.593Z,17.59
2019-05-01T16:59:32.310Z,17.14
2019-05-01T17:02:06.020Z,17.14
2019-05-01T17:04:39.756Z,17.19
2019-05-01T17:07:13.543Z,16.75
2019-05-01T17:09:47.338Z,17.09
2019-05-01T17:12:21.184Z,16.84
2019-05-01T17:14:55.000Z,16.84
2019-05-01T17:17:28.724Z,16.36
2019-05-01T17:20:03.107Z,15.86
2019-05-01T17:22:36.826Z,15.61
2019-05-01T17:25:10.543Z,15.75
2019-05-01T17:27:44.281Z,15.48
2019-05-01T17:30:21.284Z,15.37
2019-05-01T17:32:55.105Z,15.30
2019-05-01T17:35:28.916Z,15.30
2019-05-01T17:38:02.701Z,15.59
2019-05-01T17:40:36.438Z,15.96
2019-05-01T17:43:13.506Z,15.38
2019-05-01T17:45:45.603Z,15.41
2019-05-01T17:48:19.633Z,15.41
2019-05-01T17:50:55.156Z,14.79
2019-05-01T17:53:28.859Z,14.72
2019-05-01T17:56:02.590Z,14.72
2019-05-01T17:58:36.301Z,14.89
2019-05-01T18:01:10.064Z,15.11
2019-05-01T18:03:43.788Z,14.88
2019-05-01T18:06:17.513Z,14.85
2019-05-01T18:09:02.509Z,14.65
2019-05-01T18:11:27.167Z,14.44
2019-05-01T18:14:00.907Z,14.44
2019-05-01T18:16:34.639Z,14.52
2019-05-01T18:19:09.900Z,14.52
2019-05-01T18:21:46.785Z,14.55
2019-05-01T18:24:23.179Z,14.15
2019-05-01T18:26:54.913Z,14.15
2019-05-01T18:29:28.622Z,14.03
2019-05-01T18:32:03.061Z,14.03
2019-05-01T18:34:38.342Z,14.16
2019-05-01T18:37:13.826Z,13.86
2019-05-01T18:39:47.544Z,13.52
2019-05-01T18:42:21.240Z,13.42
2019-05-01T18:44:55.016Z,13.25
2019-05-01T18:47:28.832Z,13.28
2019-05-01T18:50:04.211Z,13.33
2019-05-01T18:52:37.930Z,13.45
2019-05-01T18:55:11.730Z,13.45
2019-05-01T18:57:45.467Z,13.31
2019-05-01T19:00:19.172Z,13.33
2019-05-01T19:02:52.898Z,13.41
2019-05-01T19:05:26.633Z,13.17
2019-05-01T19:08:00.463Z,13.17
2019-05-01T19:10:34.164Z,13.13
2019-05-01T19:13:07.886Z,13.13
2019-05-01T19:15:41.627Z,12.99
2019-05-01T19:18:15.386Z,12.97
2019-05-01T19:20:59.403Z,13.39
2019-05-01T19:23:27.948Z,12.91
2019-05-01T19:26:04.948Z,12.90
2019-05-01T19:28:36.311Z,13.05
2019-05-01T19:31:10.040Z,13.04
2019-05-01T19:33:43.898Z,13.04
2019-05-01T19:36:17.639Z,13.15
2019-05-01T19:38:51.363Z,13.08
2019-05-01T19:41:25.099Z,12.91
2019-05-01T19:43:58.813Z,12.80
2019-05-01T19:46:32.532Z,12.93
2019-05-01T19:49:06.245Z,13.01
2019-05-01T19:51:40.023Z,12.96
2019-05-01T19:54:13.776Z,13.19
2019-05-01T19:56:47.560Z,13.19
2019-05-01T19:59:21.419Z,13.25
2019-05-01T20:01:55.250Z,13.28
2019-05-01T20:04:28.999Z,13.22
2019-05-01T20:07:02.831Z,13.28
2019-05-01T20:09:36.639Z,13.28
2019-05-01T20:12:10.344Z,13.20
2019-05-01T20:14:44.057Z,12.89
2019-05-01T20:17:17.944Z,12.51
2019-05-01T20:19:51.680Z,12.51
2019-05-01T20:22:25.405Z,12.40
2019-05-01T20:24:59.124Z,12.63
2019-05-01T20:27:32.844Z,12.58
2019-05-01T20:30:07.226Z,12.24
2019-05-01T20:32:40.930Z,12.24
2019-05-01T20:35:14.722Z,12.13
2019-05-01T20:37:48.418Z,12.15
2019-05-01T20:40:22.226Z,12.11
2019-05-01T20:42:55.936Z,12.23
2019-05-01T20:45:29.666Z,12.24
2019-05-01T20:48:03.506Z,12.36
2019-05-01T20:50:37.235Z,12.36
2019-05-01T20:53:10.946Z,12.14
2019-05-01T20:55:44.784Z,12.25
2019-05-01T20:58:18.518Z,12.27
2019-05-01T21:00:53.604Z,12.12
2019-05-01T21:03:27.710Z,12.05
2019-05-01T21:06:02.882Z,11.66
2019-05-01T21:08:39.261Z,11.56
2019-05-01T21:11:13.063Z,11.62
2019-05-01T21:13:46.858Z,11.62
2019-05-01T21:16:20.593Z,11.83
2019-05-01T21:18:54.315Z,11.47
2019-05-01T21:21:28.034Z,11.43
2019-05-01T21:24:03.561Z,11.43
2019-05-01T21:26:37.352Z,11.11
2019-05-01T21:29:11.070Z,11.14
2019-05-01T21:31:44.862Z,10.99
2019-05-01T21:34:18.599Z,11.11
2019-05-01T21:36:53.923Z,11.11
2019-05-01T21:39:27.907Z,10.91
2019-05-01T21:42:06.605Z,10.81
2019-05-01T21:44:37.037Z,10.81
2019-05-01T21:47:10.735Z,10.88
2019-05-01T21:49:44.571Z,10.88
2019-05-01T21:52:23.055Z,11.14
2019-05-01T21:54:55.201Z,11.14
2019-05-01T21:57:30.581Z,11.16
2019-05-01T22:00:06.205Z,10.95
2019-05-01T22:02:41.502Z,10.92
2019-05-01T22:05:15.401Z,10.92
2019-05-01T22:07:49.117Z,10.60
2019-05-01T22:10:26.577Z,10.60
2019-05-01T22:12:58.266Z,10.60
2019-05-01T22:15:32.054Z,10.77
2019-05-01T22:18:05.768Z,10.77
2019-05-01T22:20:39.545Z,11.07
2019-05-01T22:23:17.014Z,11.05
2019-05-01T22:25:49.450Z,11.04
2019-05-01T22:28:23.169Z,10.73
2019-05-01T22:30:56.882Z,10.96
2019-05-01T22:33:30.621Z,10.96
2019-05-01T22:36:04.331Z,11.00
2019-05-01T22:38:38.127Z,11.29
2019-05-01T22:41:11.829Z,11.30
2019-05-01T22:43:45.543Z,11.29
2019-05-01T22:46:19.253Z,11.46
2019-05-01T22:48:52.974Z,11.27
2019-05-01T22:51:26.686Z,11.28
2019-05-01T22:54:00.408Z,11.47
2019-05-01T22:56:34.145Z,11.47
2019-05-01T22:59:07.849Z,11.45
2019-05-01T23:01:41.554Z,10.92
2019-05-01T23:04:17.058Z,10.92
2019-05-01T23:06:50.675Z,11.05
2019-05-01T23:09:28.532Z,11.10
2019-05-01T23:11:59.922Z,11.17
2019-05-01T23:14:33.669Z,11.17
2019-05-01T23:17:07.389Z,11.31
2019-05-01T23:19:41.111Z,11.30
2019-05-01T23:22:14.824Z,11.30
2019-05-01T23:24:48.537Z,11.18
2019-05-01T23:27:24.387Z,10.86
2019-05-01T23:29:57.648Z,10.86
2019-05-01T23:32:31.374Z,10.48
2019-05-01T23:35:05.855Z,10.61
2019-05-01T23:37:39.558Z,10.99
2019-05-01T23:40:15.641Z,10.79
2019-05-01T23:42:52.850Z,10.65
2019-05-01T23:45:24.095Z,10.65
2019-05-01T23:47:57.841Z,10.58
2019-05-01T23:50:31.551Z,10.87
2019-05-01T23:53:09.045Z,10.67
2019-05-01T23:55:40.662Z,10.48
2019-05-01T23:58:14.369Z,10.71
